Wetterstation Vordersexau
Wetterdaten: Woche 14.09.15 - 20.09.15 (KW38)
Datum Zeit Temp. A. Feuchte A. Luftdruck Regen Wind Richtung Taupunkt Windchill Windben
14.09.2015 00:00 15,3 C 84 % 1005,5 hPa 1,2 l/m 0,0 km/h SO 12,6 C 15,3 C 0,0 km/h
14.09.2015 01:00 15,2 C 83 % 1005,0 hPa 0,0 l/m 1,9 km/h S-SO 12,3 C 15,2 C 1,1 km/h
14.09.2015 02:00 14,8 C 83 % 1004,9 hPa 0,4 l/m 2,6 km/h S 11,9 C 14,8 C 1,4 km/h
14.09.2015 03:00 14,2 C 83 % 1005,1 hPa 1,2 l/m 3,9 km/h S-SO 11,4 C 14,2 C 2,2 km/h
14.09.2015 04:00 13,7 C 83 % 1003,7 hPa 0,4 l/m 0,0 km/h SO 10,9 C 13,7 C 0,0 km/h
14.09.2015 05:00 13,3 C 84 % 1003,5 hPa 0,0 l/m 0,0 km/h O 10,7 C 13,3 C 0,0 km/h
14.09.2015 06:00 13,1 C 83 % 1003,5 hPa 0,0 l/m 0,0 km/h N-NO 10,3 C 13,1 C 0,0 km/h
14.09.2015 07:00 12,9 C 82 % 1003,5 hPa 0,0 l/m 0,0 km/h N-NO 9,9 C 12,9 C 0,0 km/h
14.09.2015 08:00 13,3 C 82 % 1004,1 hPa 0,0 l/m 0,0 km/h W 10,3 C 13,3 C 0,0 km/h
14.09.2015 09:00 18,5 C 76 % 1004,5 hPa 0,0 l/m 0,0 km/h SW 14,2 C 18,5 C 0,0 km/h
14.09.2015 10:00 22,8 C 62 % 1004,3 hPa 0,0 l/m 6,5 km/h W-SW 15,1 C 22,8 C 3,6 km/h
14.09.2015 11:00 21,6 C 61 % 1004,0 hPa 0,4 l/m 14,9 km/h W-SW 13,7 C 19,2 C 8,3 km/h
14.09.2015 12:00 23,6 C 55 % 1003,7 hPa 0,0 l/m 22,7 km/h SW 14,0 C 20,5 C 12,6 km/h
14.09.2015 13:00 19,5 C 62 % 1003,9 hPa 0,0 l/m 17,5 km/h S-SW 12,0 C 16,1 C 9,7 km/h
14.09.2015 14:00 23,5 C 64 % 1004,0 hPa 1,2 l/m 8,4 km/h SW 16,3 C 22,9 C 4,7 km/h
14.09.2015 15:00 20,9 C 69 % 1004,9 hPa 0,0 l/m 2,6 km/h S-SW 15,0 C 20,9 C 1,4 km/h
14.09.2015 16:00 22,0 C 60 % 1004,9 hPa 0,0 l/m 18,8 km/h S 13,9 C 19,0 C 10,4 km/h
14.09.2015 17:00 15,6 C 74 % 1005,9 hPa 0,0 l/m 11,7 km/h S-SW 11,0 C 13,1 C 6,5 km/h
14.09.2015 18:00 15,3 C 75 % 1006,9 hPa 0,4 l/m 11,7 km/h SW 10,9 C 12,7 C 6,5 km/h
14.09.2015 19:00 15,8 C 71 % 1007,1 hPa 0,0 l/m 5,2 km/h S 10,6 C 15,8 C 2,9 km/h
14.09.2015 20:00 14,3 C 74 % 1007,6 hPa 0,0 l/m 26,6 km/h S-SW 9,7 C 7,3 C 14,8 km/h
14.09.2015 21:00 14,3 C 72 % 1008,1 hPa 0,0 l/m 17,5 km/h S-SO 9,3 C 9,5 C 9,7 km/h
14.09.2015 22:00 13,6 C 73 % 1008,3 hPa 0,0 l/m 9,1 km/h S 8,9 C 12,0 C 5,0 km/h
14.09.2015 23:00 11,9 C 79 % 1008,7 hPa 0,0 l/m 11,0 km/h SW 8,4 C 9,2 C 6,1 km/h
15.09.2015 00:00 13,6 C 75 % 1008,9 hPa 0,0 l/m 6,5 km/h SW 9,3 C 13,6 C 3,6 km/h
15.09.2015 01:00 13,6 C 73 % 1009,2 hPa 0,0 l/m 7,8 km/h S-SW 8,9 C 12,7 C 4,3 km/h
15.09.2015 02:00 14,1 C 73 % 1009,1 hPa 0,0 l/m 1,3 km/h W-SW 9,3 C 14,1 C 0,7 km/h
15.09.2015 03:00 12,9 C 74 % 1008,8 hPa 0,0 l/m 4,5 km/h SO 8,4 C 12,9 C 2,5 km/h
15.09.2015 04:00 11,9 C 77 % 1008,5 hPa 0,0 l/m 0,0 km/h SO 8,0 C 11,9 C 0,0 km/h
15.09.2015 05:00 10,6 C 81 % 1008,0 hPa 0,0 l/m 1,3 km/h SO 7,5 C 10,6 C 0,7 km/h
15.09.2015 06:00 11,6 C 81 % 1007,7 hPa 0,0 l/m 0,0 km/h SO 8,5 C 11,6 C 0,0 km/h
15.09.2015 07:00 11,9 C 78 % 1007,7 hPa 0,0 l/m 0,0 km/h N-NO 8,2 C 11,9 C 0,0 km/h
15.09.2015 08:00 12,1 C 80 % 1007,1 hPa 0,0 l/m 0,0 km/h N-NO 8,8 C 12,1 C 0,0 km/h
15.09.2015 09:00 14,4 C 77 % 1007,5 hPa 0,0 l/m 0,0 km/h W-SW 10,4 C 14,4 C 0,0 km/h
15.09.2015 10:00 17,5 C 63 % 1007,4 hPa 0,0 l/m 0,0 km/h W-SW 10,4 C 17,5 C 0,0 km/h
15.09.2015 11:00 17,2 C 59 % 1007,7 hPa 0,0 l/m 4,5 km/h NW 9,1 C 17,2 C 2,5 km/h
15.09.2015 12:00 18,6 C 53 % 1007,7 hPa 0,0 l/m 22,0 km/h W-NW 8,8 C 14,0 C 12,2 km/h
15.09.2015 13:00 18,5 C 56 % 1008,1 hPa 0,0 l/m 14,9 km/h W 9,6 C 15,5 C 8,3 km/h
15.09.2015 14:00 19,2 C 53 % 1007,6 hPa 0,0 l/m 3,2 km/h S 9,4 C 19,2 C 1,8 km/h
15.09.2015 15:00 17,9 C 57 % 1007,6 hPa 0,0 l/m 7,8 km/h W-SW 9,3 C 17,2 C 4,3 km/h
15.09.2015 16:00 15,9 C 67 % 1007,7 hPa 0,0 l/m 0,0 km/h SO 9,8 C 15,9 C 0,0 km/h
15.09.2015 17:00 17,8 C 75 % 1006,7 hPa 0,0 l/m 0,0 km/h SO 13,3 C 17,8 C 0,0 km/h
15.09.2015 18:00 17,6 C 65 % 1004,9 hPa 0,0 l/m 0,0 km/h SO 10,9 C 17,6 C 0,0 km/h
15.09.2015 19:00 14,3 C 77 % 1005,1 hPa 0,0 l/m 0,0 km/h SO 10,3 C 14,3 C 0,0 km/h
15.09.2015 20:00 13,2 C 80 % 1004,6 hPa 0,0 l/m 0,0 km/h N-NO 9,8 C 13,2 C 0,0 km/h
15.09.2015 21:00 13,1 C 82 % 1004,2 hPa 0,0 l/m 0,0 km/h NO 10,1 C 13,1 C 0,0 km/h
15.09.2015 22:00 13,3 C 83 % 1003,4 hPa 0,0 l/m 0,0 km/h NO 10,5 C 13,3 C 0,0 km/h
15.09.2015 23:00 14,3 C 79 % 1001,9 hPa 0,0 l/m 0,0 km/h O-SO 10,7 C 14,3 C 0,0 km/h
16.09.2015 00:00 16,8 C 64 % 1001,4 hPa 0,0 l/m 0,0 km/h O-SO 10,0 C 16,8 C 0,0 km/h
16.09.2015 01:00 15,4 C 70 % 1000,4 hPa 0,0 l/m 0,0 km/h W 10,0 C 15,4 C 0,0 km/h
16.09.2015 02:00 13,5 C 82 % 1000,6 hPa 0,0 l/m 0,0 km/h N 10,5 C 13,5 C 0,0 km/h
16.09.2015 03:00 13,2 C 83 % 1000,3 hPa 0,0 l/m 0,0 km/h W-SW 10,4 C 13,2 C 0,0 km/h
16.09.2015 04:00 13,3 C 83 % 999,5 hPa 0,0 l/m 0,0 km/h SO 10,5 C 13,3 C 0,0 km/h
16.09.2015 05:00 13,3 C 84 % 998,9 hPa 0,0 l/m 0,0 km/h O-NO 10,7 C 13,3 C 0,0 km/h
16.09.2015 06:00 13,1 C 84 % 998,9 hPa 0,0 l/m 0,0 km/h NO 10,5 C 13,1 C 0,0 km/h
16.09.2015 07:00 13,1 C 84 % 998,6 hPa 0,4 l/m 0,0 km/h O-SO 10,5 C 13,1 C 0,0 km/h
16.09.2015 08:00 13,6 C 84 % 998,6 hPa 0,4 l/m 0,0 km/h O-SO 10,9 C 13,6 C 0,0 km/h
16.09.2015 09:00 14,8 C 83 % 998,6 hPa 0,0 l/m 0,0 km/h O-NO 11,9 C 14,8 C 0,0 km/h
16.09.2015 10:00 16,8 C 83 % 998,9 hPa 0,0 l/m 0,0 km/h O-SO 13,9 C 16,8 C 0,0 km/h
16.09.2015 11:00 17,9 C 84 % 998,9 hPa 0,4 l/m 4,5 km/h SO 15,2 C 17,9 C 2,5 km/h
16.09.2015 12:00 17,6 C 84 % 998,1 hPa 0,8 l/m 2,6 km/h SO 14,9 C 17,6 C 1,4 km/h
16.09.2015 13:00 18,6 C 84 % 996,9 hPa 0,4 l/m 0,0 km/h NO 15,8 C 18,6 C 0,0 km/h
16.09.2015 14:00 18,6 C 84 % 996,3 hPa 0,0 l/m 0,0 km/h O-NO 15,8 C 18,6 C 0,0 km/h
16.09.2015 15:00 27,0 C 63 % 995,4 hPa 0,0 l/m 0,0 km/h S 19,3 C 27,0 C 0,0 km/h
16.09.2015 16:00 27,6 C 50 % 994,0 hPa 0,0 l/m 2,6 km/h SO 16,2 C 27,6 C 1,4 km/h
16.09.2015 17:00 23,9 C 58 % 994,7 hPa 0,0 l/m 9,7 km/h O-SO 15,1 C 23,0 C 5,4 km/h
16.09.2015 18:00 22,2 C 65 % 994,6 hPa 0,0 l/m 0,0 km/h N-NO 15,3 C 22,2 C 0,0 km/h
16.09.2015 19:00 21,1 C 70 % 994,6 hPa 0,0 l/m 3,9 km/h O 15,4 C 21,1 C 2,2 km/h
16.09.2015 20:00 20,1 C 73 % 995,8 hPa 0,0 l/m 0,0 km/h O-SO 15,1 C 20,1 C 0,0 km/h
16.09.2015 21:00 18,5 C 77 % 996,2 hPa 0,0 l/m 0,0 km/h O-SO 14,4 C 18,5 C 0,0 km/h
16.09.2015 22:00 17,8 C 80 % 997,2 hPa 0,0 l/m 0,0 km/h N-NO 14,3 C 17,8 C 0,0 km/h
16.09.2015 23:00 18,4 C 80 % 998,4 hPa 0,0 l/m 0,0 km/h N-NW 14,9 C 18,4 C 0,0 km/h
17.09.2015 00:00 17,3 C 82 % 998,7 hPa 0,0 l/m 0,0 km/h SO 14,2 C 17,3 C 0,0 km/h
17.09.2015 01:00 16,0 C 83 % 999,3 hPa 0,0 l/m 1,9 km/h W 13,1 C 16,0 C 1,1 km/h
17.09.2015 02:00 15,9 C 84 % 999,6 hPa 0,0 l/m 0,0 km/h SO 13,2 C 15,9 C 0,0 km/h
17.09.2015 03:00 15,4 C 84 % 999,8 hPa 0,4 l/m 0,0 km/h N-NO 12,7 C 15,4 C 0,0 km/h
17.09.2015 04:00 15,8 C 83 % 999,3 hPa 0,0 l/m 0,0 km/h SO 12,9 C 15,8 C 0,0 km/h
17.09.2015 05:00 15,6 C 83 % 999,5 hPa 0,0 l/m 0,0 km/h O-SO 12,7 C 15,6 C 0,0 km/h
17.09.2015 06:00 15,7 C 82 % 999,4 hPa 0,0 l/m 0,0 km/h SO 12,6 C 15,7 C 0,0 km/h
17.09.2015 07:00 15,6 C 82 % 1000,7 hPa 0,0 l/m 0,0 km/h W-SW 12,5 C 15,6 C 0,0 km/h
17.09.2015 08:00 15,9 C 83 % 1001,3 hPa 0,0 l/m 3,9 km/h W-SW 13,0 C 15,9 C 2,2 km/h
17.09.2015 09:00 15,9 C 83 % 1002,4 hPa 0,0 l/m 3,9 km/h W-SW 13,0 C 15,9 C 2,2 km/h
17.09.2015 10:00 15,9 C 83 % 1003,1 hPa 0,0 l/m 3,9 km/h W-SW 13,0 C 15,9 C 2,2 km/h
17.09.2015 11:00 15,9 C 83 % 1003,2 hPa 0,0 l/m 3,9 km/h S-SW 13,0 C 15,9 C 2,2 km/h
17.09.2015 12:00 14,7 C 81 % 1004,7 hPa 4,1 l/m 1,9 km/h W-SW 11,5 C 14,7 C 1,1 km/h
17.09.2015 13:00 13,6 C 82 % 1006,3 hPa 1,2 l/m 15,6 km/h SO 10,6 C 9,3 C 8,6 km/h
17.09.2015 14:00 12,4 C 83 % 1006,5 hPa 1,7 l/m 9,1 km/h SO 9,6 C 10,7 C 5,0 km/h
17.09.2015 15:00 12,4 C 83 % 1007,7 hPa 0,4 l/m 9,1 km/h S-SO 9,6 C 10,7 C 5,0 km/h
17.09.2015 16:00 13,4 C 85 % 1007,8 hPa 0,0 l/m 10,4 km/h S-SO 10,9 C 11,2 C 5,8 km/h
17.09.2015 17:00 19,4 C 74 % 1008,3 hPa 0,0 l/m 0,0 km/h W-NW 14,6 C 19,4 C 0,0 km/h
17.09.2015 18:00 21,9 C 55 % 1008,8 hPa 0,0 l/m 15,6 km/h SO 12,4 C 19,4 C 8,6 km/h
17.09.2015 19:00 14,8 C 69 % 1009,4 hPa 0,4 l/m 0,0 km/h S-SO 9,2 C 14,8 C 0,0 km/h
17.09.2015 20:00 11,2 C 83 % 1010,0 hPa 0,0 l/m 0,0 km/h SO 8,4 C 11,2 C 0,0 km/h
17.09.2015 21:00 11,9 C 84 % 1010,6 hPa 0,0 l/m 0,0 km/h O 9,3 C 11,9 C 0,0 km/h
17.09.2015 22:00 11,8 C 85 % 1010,9 hPa 0,0 l/m 0,0 km/h O-SO 9,4 C 11,8 C 0,0 km/h
17.09.2015 23:00 11,4 C 85 % 1011,3 hPa 0,0 l/m 0,0 km/h SO 9,0 C 11,4 C 0,0 km/h
18.09.2015 00:00 10,5 C 85 % 1012,0 hPa 0,0 l/m 0,0 km/h SO 8,1 C 10,5 C 0,0 km/h
18.09.2015 01:00 10,9 C 84 % 1012,0 hPa 0,0 l/m 0,0 km/h SO 8,3 C 10,9 C 0,0 km/h
18.09.2015 02:00 10,9 C 84 % 1012,2 hPa 0,0 l/m 0,0 km/h O 8,3 C 10,9 C 0,0 km/h
18.09.2015 03:00 10,3 C 84 % 1012,8 hPa 0,0 l/m 0,0 km/h SO 7,7 C 10,3 C 0,0 km/h
18.09.2015 04:00 10,6 C 82 % 1012,8 hPa 0,0 l/m 0,0 km/h SO 7,7 C 10,6 C 0,0 km/h
18.09.2015 05:00 10,9 C 82 % 1013,1 hPa 0,0 l/m 0,0 km/h SO 7,9 C 10,9 C 0,0 km/h
18.09.2015 06:00 11,1 C 81 % 1013,1 hPa 0,0 l/m 0,0 km/h SO 8,0 C 11,1 C 0,0 km/h
18.09.2015 07:00 11,3 C 81 % 1013,6 hPa 0,0 l/m 0,0 km/h O-SO 8,2 C 11,3 C 0,0 km/h
18.09.2015 08:00 12,9 C 79 % 1014,3 hPa 0,0 l/m 0,0 km/h O-SO 9,3 C 12,9 C 0,0 km/h
18.09.2015 09:00 15,9 C 81 % 1015,1 hPa 0,0 l/m 0,0 km/h W 12,6 C 15,9 C 0,0 km/h
18.09.2015 10:00 16,9 C 83 % 1015,7 hPa 0,0 l/m 0,0 km/h W-SW 14,0 C 16,9 C 0,0 km/h
18.09.2015 11:00 16,1 C 81 % 1016,2 hPa 0,0 l/m 21,4 km/h W 12,8 C 10,8 C 11,9 km/h
18.09.2015 12:00 16,6 C 81 % 1016,7 hPa 0,0 l/m 8,4 km/h W 13,3 C 15,6 C 4,7 km/h
18.09.2015 13:00 16,9 C 78 % 1016,8 hPa 0,0 l/m 4,5 km/h W-SW 13,0 C 16,9 C 2,5 km/h
18.09.2015 14:00 18,9 C 66 % 1016,7 hPa 0,0 l/m 24,0 km/h W-SW 12,4 C 14,1 C 13,3 km/h
18.09.2015 15:00 18,6 C 68 % 1016,7 hPa 0,0 l/m 15,6 km/h S-SO 12,6 C 15,4 C 8,6 km/h
18.09.2015 16:00 23,6 C 55 % 1016,6 hPa 0,0 l/m 19,4 km/h W 14,0 C 20,9 C 10,8 km/h
18.09.2015 17:00 21,4 C 55 % 1016,5 hPa 0,0 l/m 6,5 km/h SW 12,0 C 21,4 C 3,6 km/h
18.09.2015 18:00 19,8 C 55 % 1016,6 hPa 0,0 l/m 8,4 km/h S-SO 10,5 C 19,0 C 4,7 km/h
18.09.2015 19:00 16,4 C 64 % 1016,8 hPa 0,0 l/m 0,0 km/h O 9,6 C 16,4 C 0,0 km/h
18.09.2015 20:00 12,3 C 78 % 1017,5 hPa 0,0 l/m 0,0 km/h N-NO 8,6 C 12,3 C 0,0 km/h
18.09.2015 21:00 11,2 C 83 % 1017,9 hPa 0,0 l/m 0,0 km/h NO 8,4 C 11,2 C 0,0 km/h
18.09.2015 22:00 10,7 C 84 % 1018,2 hPa 0,0 l/m 0,0 km/h SO 8,1 C 10,7 C 0,0 km/h
18.09.2015 23:00 10,8 C 85 % 1018,1 hPa 0,0 l/m 0,0 km/h O 8,4 C 10,8 C 0,0 km/h
19.09.2015 00:00 10,2 C 85 % 1018,4 hPa 0,0 l/m 0,0 km/h O-NO 7,8 C 10,2 C 0,0 km/h
19.09.2015 01:00 10,1 C 85 % 1018,3 hPa 0,0 l/m 0,0 km/h NO 7,7 C 10,1 C 0,0 km/h
19.09.2015 02:00 9,7 C 85 % 1018,2 hPa 0,0 l/m 0,0 km/h SO 7,3 C 9,7 C 0,0 km/h
19.09.2015 03:00 8,5 C 86 % 1018,3 hPa 0,0 l/m 0,0 km/h SO 6,3 C 8,5 C 0,0 km/h
19.09.2015 04:00 9,6 C 85 % 1018,3 hPa 0,0 l/m 0,0 km/h O-NO 7,2 C 9,6 C 0,0 km/h
19.09.2015 05:00 9,3 C 85 % 1018,3 hPa 0,0 l/m 0,0 km/h O-SO 6,9 C 9,3 C 0,0 km/h
19.09.2015 06:00 11,3 C 84 % 1018,4 hPa 0,0 l/m 0,0 km/h S 8,7 C 11,3 C 0,0 km/h
19.09.2015 07:00 11,4 C 85 % 1018,7 hPa 0,0 l/m 4,5 km/h W-SW 9,0 C 11,4 C 2,5 km/h
19.09.2015 08:00 14,5 C 82 % 1019,0 hPa 0,0 l/m 0,0 km/h W 11,5 C 14,5 C 0,0 km/h
19.09.2015 09:00 14,8 C 83 % 1019,7 hPa 0,0 l/m 16,2 km/h SW 11,9 C 10,6 C 9,0 km/h
19.09.2015 10:00 15,5 C 84 % 1020,2 hPa 0,4 l/m 0,0 km/h S-SW 12,8 C 15,5 C 0,0 km/h
19.09.2015 11:00 17,4 C 80 % 1020,2 hPa 0,0 l/m 4,5 km/h W 13,9 C 17,4 C 2,5 km/h
19.09.2015 12:00 20,2 C 68 % 1020,0 hPa 0,0 l/m 6,5 km/h S 14,1 C 20,2 C 3,6 km/h
19.09.2015 13:00 18,6 C 74 % 1019,9 hPa 0,0 l/m 5,8 km/h S 13,9 C 18,6 C 3,2 km/h
19.09.2015 14:00 23,3 C 60 % 1019,7 hPa 0,0 l/m 5,8 km/h S 15,1 C 23,3 C 3,2 km/h
19.09.2015 15:00 21,9 C 60 % 1019,3 hPa 0,0 l/m 7,8 km/h SW 13,8 C 21,4 C 4,3 km/h
19.09.2015 16:00 16,4 C 74 % 1019,6 hPa 0,8 l/m 0,6 km/h W-SW 11,8 C 16,4 C 0,4 km/h
19.09.2015 17:00 16,1 C 78 % 1020,0 hPa 0,0 l/m 0,0 km/h SO 12,3 C 16,1 C 0,0 km/h
19.09.2015 18:00 16,1 C 78 % 1020,2 hPa 0,0 l/m 0,0 km/h S-SO 12,3 C 16,1 C 0,0 km/h
19.09.2015 19:00 13,9 C 79 % 1020,5 hPa 0,0 l/m 0,0 km/h SO 10,3 C 13,9 C 0,0 km/h
19.09.2015 20:00 12,4 C 84 % 1021,1 hPa 0,0 l/m 3,9 km/h SO 9,8 C 12,4 C 2,2 km/h
19.09.2015 21:00 11,9 C 85 % 1021,5 hPa 0,0 l/m 0,0 km/h SO 9,5 C 11,9 C 0,0 km/h
19.09.2015 22:00 11,8 C 85 % 1022,1 hPa 0,0 l/m 0,0 km/h SO 9,4 C 11,8 C 0,0 km/h
19.09.2015 23:00 11,8 C 85 % 1022,5 hPa 0,0 l/m 0,0 km/h SO 9,4 C 11,8 C 0,0 km/h
20.09.2015 00:00 11,5 C 85 % 1022,2 hPa 0,0 l/m 0,0 km/h SO 9,1 C 11,5 C 0,0 km/h
20.09.2015 01:00 11,3 C 85 % 1021,9 hPa 0,0 l/m 0,0 km/h SO 8,9 C 11,3 C 0,0 km/h
20.09.2015 02:00 11,4 C 84 % 1021,9 hPa 0,0 l/m 2,6 km/h SO 8,8 C 11,4 C 1,4 km/h
20.09.2015 03:00 11,3 C 83 % 1021,8 hPa 0,0 l/m 0,0 km/h SO 8,5 C 11,3 C 0,0 km/h
20.09.2015 04:00 11,3 C 83 % 1021,9 hPa 0,0 l/m 0,0 km/h SO 8,5 C 11,3 C 0,0 km/h
20.09.2015 05:00 11,8 C 83 % 1021,7 hPa 0,0 l/m 0,0 km/h SO 9,0 C 11,8 C 0,0 km/h
20.09.2015 06:00 11,8 C 82 % 1021,7 hPa 0,0 l/m 0,0 km/h SO 8,8 C 11,8 C 0,0 km/h
20.09.2015 07:00 11,4 C 83 % 1022,0 hPa 0,0 l/m 0,0 km/h O 8,6 C 11,4 C 0,0 km/h
20.09.2015 08:00 12,6 C 81 % 1022,3 hPa 0,0 l/m 0,0 km/h S-SO 9,4 C 12,6 C 0,0 km/h
20.09.2015 09:00 14,4 C 76 % 1022,3 hPa 0,0 l/m 6,5 km/h W 10,2 C 14,4 C 3,6 km/h
20.09.2015 10:00 17,5 C 80 % 1022,6 hPa 0,0 l/m 0,0 km/h N-NO 14,0 C 17,5 C 0,0 km/h
20.09.2015 11:00 19,1 C 69 % 1022,2 hPa 0,0 l/m 0,0 km/h N-NO 13,3 C 19,1 C 0,0 km/h
20.09.2015 12:00 19,5 C 65 % 1022,1 hPa 0,0 l/m 3,9 km/h O 12,7 C 19,5 C 2,2 km/h
20.09.2015 13:00 22,2 C 60 % 1021,6 hPa 0,0 l/m 0,0 km/h W-NW 14,1 C 22,2 C 0,0 km/h
20.09.2015 14:00 24,0 C 47 % 1021,2 hPa 0,0 l/m 0,0 km/h N-NO 12,0 C 24,0 C 0,0 km/h
20.09.2015 15:00 21,5 C 54 % 1020,9 hPa 0,0 l/m 16,2 km/h N-NO 11,8 C 18,8 C 9,0 km/h
20.09.2015 16:00 28,1 C 38 % 1020,2 hPa 0,0 l/m 0,0 km/h N-NO 12,4 C 28,1 C 0,0 km/h
20.09.2015 17:00 25,4 C 42 % 1020,3 hPa 0,0 l/m 5,8 km/h N-NO 11,5 C 25,4 C 3,2 km/h
20.09.2015 18:00 22,9 C 47 % 1020,2 hPa 0,0 l/m 0,0 km/h N-NO 11,0 C 22,9 C 0,0 km/h
20.09.2015 19:00 14,8 C 64 % 1020,6 hPa 0,0 l/m 0,0 km/h O-NO 8,1 C 14,8 C 0,0 km/h
20.09.2015 20:00 11,3 C 73 % 1020,6 hPa 0,0 l/m 0,0 km/h O-NO 6,6 C 11,3 C 0,0 km/h
20.09.2015 21:00 9,9 C 78 % 1020,5 hPa 0,0 l/m 0,0 km/h SO 6,2 C 9,9 C 0,0 km/h
20.09.2015 22:00 9,6 C 82 % 1020,6 hPa 0,0 l/m 1,9 km/h O-SO 6,7 C 9,6 C 1,1 km/h
20.09.2015 23:00 9,3 C 84 % 1019,9 hPa 0,0 l/m 0,0 km/h O-SO 6,7 C 9,3 C 0,0 km/h
Min-Datum _ 19.09.15 20.09.15 16.09.15 - 14.09.15 - 20.09.15 14.09.15 14.09.15
_ Min-Zeit 03:42 16:42 16:42 - 00:42 - 21:42 20:42 00:42
Minimum _ 8,5 C 38 % 994,0 hPa - 0,0 km/h - 6,2 C 7,3 C 0,0 km/h
Max-Datum _ 20.09.15 19.09.15 20.09.15 17.09.15 14.09.15 - 16.09.15 20.09.15 14.09.15
_ Max-Zeit 16:42 03:42 10:42 12:42 20:42 - 15:42 16:42 20:42
Maximum _ 28,1 C 86 % 1022,6 hPa 4,1 l/m 26,6 km/h
S-SW
- 19,3 C 28,1 C 14,8 km/h
S-SW
Durchschnitt _ 15,5 C 76 % 1010,1 hPa #17,4 l/m 3,4 km/h SO 11,0 C 15,0 C 1,9 km/h
www.sexauwetter.de